Time;durP1;ratioP1;P1;durP2;ratioP2;P2;SDS_P1;SDS_P2;PMS_P1;PMS_P2;Temp;Humidity;BMP_temperature;BMP_pressure;BME280_temperature;BME280_humidity;BME280_pressure;Samples;Min_cycle;Max_cycle;Signal;HPM_P1;HPM_P2
2021/07/06 00:00:15;;;;;;;2.30;0.70;;;20.40;92.90;;;;;;4860498;29;20055;-84
2021/07/06 00:02:41;;;;;;;3.90;0.68;;;20.30;93.00;;;;;;4859306;29;20053;-85
2021/07/06 00:05:07;;;;;;;3.85;0.90;;;20.30;93.00;;;;;;4862763;29;20405;-85
2021/07/06 00:07:33;;;;;;;0.95;0.77;;;20.30;93.10;;;;;;4859746;29;20054;-84
2021/07/06 00:09:59;;;;;;;4.65;1.20;;;20.30;93.20;;;;;;4876869;29;20052;-85
2021/07/06 00:12:26;;;;;;;2.92;0.70;;;20.30;93.20;;;;;;4860321;29;20121;-85
2021/07/06 00:14:52;;;;;;;1.83;1.00;;;20.30;93.30;;;;;;4860913;29;20703;-85
2021/07/06 00:17:19;;;;;;;1.42;0.80;;;20.30;93.30;;;;;;4861340;29;20049;-85
2021/07/06 00:19:45;;;;;;;1.40;0.82;;;20.30;93.40;;;;;;4861039;29;20615;-85
2021/07/06 00:22:10;;;;;;;1.85;0.70;;;20.20;93.40;;;;;;4864015;29;20045;-85
2021/07/06 00:24:36;;;;;;;1.52;0.75;;;20.20;93.40;;;;;;4860609;29;20056;-85
2021/07/06 00:27:01;;;;;;;1.15;0.90;;;20.20;93.40;;;;;;4864552;29;20295;-85
2021/07/06 00:29:27;;;;;;;1.27;0.75;;;20.20;93.40;;;;;;4864661;29;20037;-85
2021/07/06 00:31:53;;;;;;;3.55;0.80;;;20.20;93.50;;;;;;4854465;29;20406;-85
2021/07/06 00:34:18;;;;;;;5.30;0.70;;;20.10;93.60;;;;;;4859964;29;20286;-86
2021/07/06 00:36:43;;;;;;;0.50;0.50;;;20.20;93.60;;;;;;4858668;29;20049;-86
2021/07/06 00:39:09;;;;;;;4.75;0.73;;;20.10;93.60;;;;;;4858896;29;20052;-86
2021/07/06 00:41:36;;;;;;;1.13;0.60;;;20.10;93.70;;;;;;4859568;29;20049;-85
2021/07/06 00:44:02;;;;;;;0.50;0.50;;;20.10;93.70;;;;;;4861120;29;20042;-85
2021/07/06 00:46:27;;;;;;;1.23;0.70;;;20.10;93.70;;;;;;4863742;29;20127;-86
2021/07/06 00:48:53;;;;;;;0.75;0.70;;;20.10;93.70;;;;;;4858342;29;20089;-86
2021/07/06 00:51:18;;;;;;;0.70;0.60;;;20.10;93.80;;;;;;4858613;29;20045;-86
2021/07/06 00:53:44;;;;;;;1.38;0.82;;;20.10;93.80;;;;;;4856223;29;20047;-87
2021/07/06 00:56:10;;;;;;;3.38;1.23;;;20.10;93.90;;;;;;4878441;29;20097;-87
2021/07/06 00:58:36;;;;;;;5.18;0.80;;;20.10;94.00;;;;;;4876417;29;20065;-86
2021/07/06 01:01:03;;;;;;;2.58;1.63;;;20.10;94.00;;;;;;4862360;29;20128;-87
2021/07/06 01:03:32;;;;;;;1.17;0.70;;;20.10;94.10;;;;;;4852892;29;20075;-86
2021/07/06 01:05:58;;;;;;;1.10;0.75;;;20.00;94.10;;;;;;4857089;29;20045;-86
2021/07/06 01:08:23;;;;;;;1.02;0.90;;;20.00;94.20;;;;;;4862749;29;20299;-86
2021/07/06 01:10:49;;;;;;;1.20;0.70;;;20.00;94.30;;;;;;4862703;29;20065;-87
2021/07/06 01:13:14;;;;;;;0.93;0.75;;;20.00;94.30;;;;;;4864869;29;20057;-87
2021/07/06 01:15:40;;;;;;;0.98;0.77;;;20.00;94.20;;;;;;4876546;29;20042;-87
2021/07/06 01:18:17;;;;;;;4.80;0.75;;;19.90;94.40;;;;;;4873627;29;20448;-87
2021/07/06 01:20:48;;;;;;;2.15;0.70;;;19.90;94.50;;;;;;4863651;29;20045;-86
2021/07/06 01:23:16;;;;;;;1.38;0.73;;;19.90;94.70;;;;;;4862137;29;20059;-86
2021/07/06 01:25:43;;;;;;;1.05;0.80;;;19.80;94.70;;;;;;4877500;29;20041;-86
2021/07/06 01:28:09;;;;;;;0.60;0.60;;;19.80;94.50;;;;;;4862572;29;20084;-86
2021/07/06 01:30:36;;;;;;;1.00;0.70;;;19.80;94.50;;;;;;4859157;29;20132;-86
2021/07/06 01:33:02;;;;;;;2.45;0.80;;;19.80;94.60;;;;;;4860075;29;20477;-86
2021/07/06 01:35:28;;;;;;;0.88;0.70;;;19.80;94.70;;;;;;4863725;29;20302;-87
2021/07/06 01:38:00;;;;;;;0.88;0.70;;;19.80;94.70;;;;;;4872805;29;20049;-87
2021/07/06 01:40:28;;;;;;;1.60;1.30;;;19.80;94.70;;;;;;4861044;29;20081;-87
2021/07/06 01:42:55;;;;;;;1.23;0.77;;;19.80;94.80;;;;;;4858065;29;20053;-86
2021/07/06 01:45:26;;;;;;;2.35;0.85;;;19.70;94.80;;;;;;4863049;29;20185;-87
2021/07/06 01:47:54;;;;;;;1.35;0.82;;;19.70;94.90;;;;;;4872721;29;20064;-85
2021/07/06 01:50:25;;;;;;;1.00;0.70;;;19.70;94.90;;;;;;4859103;29;20398;-84
2021/07/06 01:52:53;;;;;;;1.80;0.70;;;19.70;95.00;;;;;;4861110;29;20049;-85
2021/07/06 01:55:25;;;;;;;1.42;0.63;;;19.70;94.90;;;;;;4858040;29;20525;-85
2021/07/06 01:57:54;;;;;;;0.95;0.70;;;19.70;95.20;;;;;;4863024;29;20429;-86
2021/07/06 02:00:22;;;;;;;1.40;0.80;;;19.60;95.00;;;;;;4864119;29;20045;-86
2021/07/06 02:02:49;;;;;;;1.15;0.90;;;19.60;95.10;;;;;;4874486;29;20045;-86
2021/07/06 02:05:15;;;;;;;1.00;0.68;;;19.60;95.20;;;;;;4860479;29;20049;-86
2021/07/06 02:07:41;;;;;;;2.30;0.70;;;19.50;95.20;;;;;;4857825;29;20060;-86
2021/07/06 02:10:07;;;;;;;0.70;0.65;;;19.50;95.20;;;;;;4850713;29;20038;-86
2021/07/06 02:12:34;;;;;;;1.98;1.00;;;19.50;95.40;;;;;;4853935;29;20073;-86
2021/07/06 02:15:00;;;;;;;0.93;0.80;;;19.50;95.20;;;;;;4853540;29;20137;-86
2021/07/06 02:17:26;;;;;;;1.98;0.95;;;19.50;95.30;;;;;;4875742;29;20121;-86
2021/07/06 02:19:52;;;;;;;1.33;0.70;;;19.50;95.30;;;;;;4859342;29;20458;-86
2021/07/06 02:22:17;;;;;;;1.10;0.70;;;19.50;95.30;;;;;;4849784;29;20046;-86
2021/07/06 02:24:44;;;;;;;0.80;0.70;;;19.40;95.30;;;;;;4851335;29;20136;-86
2021/07/06 02:27:10;;;;;;;1.25;0.77;;;19.40;95.40;;;;;;4862546;29;20056;-86
2021/07/06 02:29:35;;;;;;;3.03;1.00;;;19.40;95.30;;;;;;4875727;29;20302;-86
2021/07/06 02:32:01;;;;;;;0.70;0.65;;;19.40;95.40;;;;;;4856518;29;20301;-87
2021/07/06 02:34:26;;;;;;;1.00;0.70;;;19.30;95.40;;;;;;4860541;29;20161;-87
2021/07/06 02:36:52;;;;;;;1.60;1.48;;;19.30;95.50;;;;;;4852741;29;20041;-86
2021/07/06 02:39:17;;;;;;;3.08;0.93;;;19.30;95.50;;;;;;4862352;29;20128;-87
2021/07/06 02:41:43;;;;;;;0.80;0.70;;;19.30;95.60;;;;;;4859383;29;20049;-87
2021/07/06 02:44:08;;;;;;;1.30;1.20;;;19.20;95.50;;;;;;4861390;29;20061;-86
2021/07/06 02:46:34;;;;;;;0.60;0.60;;;19.30;95.60;;;;;;4862101;29;20077;-87
2021/07/06 02:48:59;;;;;;;2.78;0.90;;;19.20;95.60;;;;;;4859670;29;20041;-86
2021/07/06 02:51:24;;;;;;;0.85;0.73;;;19.20;95.70;;;;;;4848237;29;20046;-87
2021/07/06 02:53:50;;;;;;;2.13;0.90;;;19.20;95.70;;;;;;4860409;29;20042;-86
2021/07/06 02:56:15;;;;;;;1.13;0.90;;;19.20;95.80;;;;;;4859621;29;20033;-86
2021/07/06 02:58:41;;;;;;;1.20;0.90;;;19.20;95.80;;;;;;4858307;29;20376;-86
2021/07/06 03:01:06;;;;;;;1.23;0.80;;;19.10;95.80;;;;;;4863367;29;20413;-86
2021/07/06 03:03:32;;;;;;;1.13;0.95;;;19.10;95.90;;;;;;4858448;29;20457;-86
2021/07/06 03:05:57;;;;;;;1.23;1.00;;;19.10;96.20;;;;;;4857310;29;20045;-86
2021/07/06 03:08:25;;;;;;;1.13;0.70;;;19.10;96.00;;;;;;4871098;29;20372;-85
2021/07/06 03:10:50;;;;;;;2.53;0.63;;;19.10;96.00;;;;;;4855390;29;20042;-85
2021/07/06 03:13:17;;;;;;;4.65;0.90;;;19.10;96.00;;;;;;4856857;29;20061;-86
2021/07/06 03:15:42;;;;;;;4.20;1.25;;;19.00;95.90;;;;;;4852672;29;20034;-86
2021/07/06 03:18:10;;;;;;;3.58;0.88;;;19.00;96.00;;;;;;4862188;29;20049;-86
2021/07/06 03:20:36;;;;;;;2.92;1.10;;;19.00;96.10;;;;;;4850778;29;20056;-86
2021/07/06 03:23:02;;;;;;;1.67;0.90;;;19.00;96.10;;;;;;4859417;29;20124;-85
2021/07/06 03:25:29;;;;;;;1.50;0.95;;;19.00;96.10;;;;;;4859339;29;20049;-86
2021/07/06 03:27:55;;;;;;;4.05;0.95;;;19.00;96.10;;;;;;4852493;29;20046;-85
2021/07/06 03:30:26;;;;;;;0.50;0.50;;;19.00;96.10;;;;;;4861735;29;20124;-85
2021/07/06 03:32:54;;;;;;;1.55;0.82;;;19.00;96.20;;;;;;4856085;29;20519;-86
2021/07/06 03:35:20;;;;;;;1.45;1.23;;;19.00;96.20;;;;;;4863258;29;20045;-85
2021/07/06 03:37:46;;;;;;;1.63;0.82;;;19.00;96.30;;;;;;4860197;29;20119;-86
2021/07/06 03:40:12;;;;;;;1.98;0.80;;;19.00;96.30;;;;;;4860984;29;20037;-85
2021/07/06 03:42:38;;;;;;;1.55;0.90;;;19.00;96.40;;;;;;4863234;29;20037;-85
2021/07/06 03:45:06;;;;;;;5.93;1.00;;;19.00;96.40;;;;;;4863799;29;20064;-85
2021/07/06 03:47:32;;;;;;;1.33;0.90;;;19.00;96.40;;;;;;4862781;29;20080;-85
2021/07/06 03:49:57;;;;;;;1.65;1.00;;;18.90;96.30;;;;;;4875508;29;20166;-86
2021/07/06 03:52:23;;;;;;;0.98;0.88;;;19.00;96.40;;;;;;4875889;29;20049;-85
2021/07/06 03:54:48;;;;;;;3.17;1.10;;;19.00;96.40;;;;;;4861375;29;20038;-86
2021/07/06 03:57:14;;;;;;;0.90;0.70;;;19.00;96.40;;;;;;4865641;29;20048;-86
2021/07/06 03:59:39;;;;;;;1.08;0.80;;;19.00;96.40;;;;;;4855720;29;20049;-85
2021/07/06 04:02:05;;;;;;;1.15;0.70;;;19.00;96.30;;;;;;4857121;29;20128;-85
2021/07/06 04:04:30;;;;;;;1.98;1.05;;;19.00;96.30;;;;;;4862153;29;20117;-86
2021/07/06 04:06:56;;;;;;;0.82;0.80;;;19.10;96.30;;;;;;4874787;29;20041;-85
2021/07/06 04:09:21;;;;;;;1.13;0.75;;;19.10;96.20;;;;;;4859698;29;20041;-85
2021/07/06 04:11:47;;;;;;;0.88;0.50;;;19.10;96.20;;;;;;4876465;29;20041;-86
2021/07/06 04:14:12;;;;;;;2.28;0.95;;;19.10;96.10;;;;;;4860322;29;20314;-87
2021/07/06 04:16:39;;;;;;;2.75;1.00;;;19.20;96.10;;;;;;4860365;29;20483;-85
2021/07/06 04:19:06;;;;;;;1.02;0.70;;;19.20;96.00;;;;;;4861465;29;20045;-87
2021/07/06 04:21:35;;;;;;;1.90;0.80;;;19.20;96.00;;;;;;4873748;29;20080;-86
2021/07/06 04:24:01;;;;;;;1.38;1.00;;;19.30;95.90;;;;;;4869573;29;20085;-86
2021/07/06 04:26:27;;;;;;;1.10;0.60;;;19.30;95.80;;;;;;4858702;29;20125;-86
2021/07/06 04:28:52;;;;;;;3.90;0.60;;;19.40;95.80;;;;;;4868995;29;20106;-85
2021/07/06 04:31:18;;;;;;;1.27;0.73;;;19.40;95.70;;;;;;4865714;29;20055;-85
2021/07/06 04:33:43;;;;;;;1.90;0.90;;;19.40;95.70;;;;;;4863606;29;20041;-85
2021/07/06 04:36:09;;;;;;;0.80;0.70;;;19.50;95.70;;;;;;4848430;29;20315;-86
2021/07/06 04:38:34;;;;;;;1.90;0.82;;;19.50;95.70;;;;;;4850138;29;20267;-86
2021/07/06 04:41:00;;;;;;;1.15;0.80;;;19.50;95.60;;;;;;4861132;29;20106;-86
2021/07/06 04:43:25;;;;;;;2.97;0.60;;;19.60;95.50;;;;;;4875959;29;20099;-86
2021/07/06 04:45:51;;;;;;;5.82;0.93;;;19.60;95.40;;;;;;4857116;29;20053;-86
2021/07/06 04:48:16;;;;;;;0.85;0.60;;;19.70;95.30;;;;;;4861193;29;20102;-86
2021/07/06 04:50:42;;;;;;;5.68;0.80;;;19.70;95.20;;;;;;4857338;29;20046;-86
2021/07/06 04:53:08;;;;;;;0.77;0.70;;;19.80;95.20;;;;;;4869900;29;20072;-84
2021/07/06 04:55:35;;;;;;;0.88;0.70;;;19.80;95.00;;;;;;4857515;29;20074;-86
2021/07/06 04:58:02;;;;;;;0.82;0.65;;;19.80;94.80;;;;;;4863772;29;20433;-86
2021/07/06 05:00:27;;;;;;;5.25;0.80;;;19.90;94.40;;;;;;4859365;29;20045;-87
2021/07/06 05:02:53;;;;;;;1.33;0.60;;;19.90;94.40;;;;;;4872875;29;20380;-86
2021/07/06 05:05:19;;;;;;;2.75;0.65;;;20.00;94.50;;;;;;4876280;29;20072;-86
2021/07/06 05:07:44;;;;;;;0.95;0.60;;;20.00;94.50;;;;;;4861437;29;20051;-86
2021/07/06 05:10:12;;;;;;;5.05;1.08;;;20.10;94.30;;;;;;4861223;29;20037;-86
2021/07/06 05:12:38;;;;;;;1.20;0.70;;;20.10;94.10;;;;;;4862600;29;20037;-86
2021/07/06 05:15:05;;;;;;;6.43;0.90;;;20.20;94.20;;;;;;4861423;29;20752;-86
2021/07/06 05:17:31;;;;;;;2.08;0.73;;;20.30;94.00;;;;;;4861992;29;20049;-85
2021/07/06 05:19:57;;;;;;;0.80;0.60;;;20.40;93.90;;;;;;4873821;29;20041;-85
2021/07/06 05:22:23;;;;;;;1.05;0.52;;;20.40;93.70;;;;;;4851423;29;20044;-85
2021/07/06 05:24:49;;;;;;;2.00;0.70;;;20.40;93.40;;;;;;4862899;29;20335;-86
2021/07/06 05:27:14;;;;;;;0.93;0.60;;;20.40;93.30;;;;;;4861864;29;20046;-86
2021/07/06 05:29:40;;;;;;;4.43;0.60;;;20.50;93.60;;;;;;4861670;29;20049;-85
2021/07/06 05:32:06;;;;;;;4.80;0.80;;;20.60;93.60;;;;;;4877222;29;20144;-85
2021/07/06 05:34:31;;;;;;;0.88;0.50;;;20.60;93.60;;;;;;4862541;29;20026;-86
2021/07/06 05:36:57;;;;;;;2.67;0.60;;;20.60;93.40;;;;;;4874893;29;20045;-85
2021/07/06 05:39:23;;;;;;;1.08;0.63;;;20.70;93.40;;;;;;4849354;29;20449;-85
2021/07/06 05:41:49;;;;;;;2.97;0.68;;;20.70;93.50;;;;;;4845977;29;20075;-85
2021/07/06 05:44:15;;;;;;;3.65;0.60;;;20.70;93.20;;;;;;4870738;29;20045;-85
2021/07/06 05:46:41;;;;;;;2.53;0.68;;;20.80;93.10;;;;;;4870600;29;20061;-84
2021/07/06 05:49:06;;;;;;;4.22;0.80;;;20.80;92.80;;;;;;4847999;29;20041;-84
2021/07/06 05:51:32;;;;;;;4.45;0.68;;;20.90;92.80;;;;;;4852682;29;20042;-85
2021/07/06 05:53:57;;;;;;;9.63;0.85;;;20.90;92.80;;;;;;4862592;29;20124;-85
2021/07/06 05:56:23;;;;;;;2.35;0.68;;;20.90;92.80;;;;;;4868120;29;20106;-85
2021/07/06 05:58:49;;;;;;;2.80;0.60;;;21.00;92.60;;;;;;4871067;29;20343;-85
2021/07/06 06:01:15;;;;;;;1.50;0.75;;;21.10;92.40;;;;;;4872832;29;20426;-85
2021/07/06 06:03:41;;;;;;;4.30;0.93;;;21.10;92.50;;;;;;4862150;29;20088;-86
2021/07/06 06:06:08;;;;;;;1.25;0.68;;;21.20;92.50;;;;;;4855876;29;20065;-85
2021/07/06 06:08:35;;;;;;;2.83;0.80;;;21.30;92.20;;;;;;4874457;29;20121;-86
2021/07/06 06:11:01;;;;;;;2.05;0.60;;;21.40;92.10;;;;;;4847998;29;20441;-86
2021/07/06 06:13:26;;;;;;;0.98;0.73;;;21.40;91.90;;;;;;4870664;29;20045;-86
2021/07/06 06:15:52;;;;;;;1.20;0.57;;;21.50;91.60;;;;;;4861304;29;20034;-85
2021/07/06 06:18:17;;;;;;;8.18;1.17;;;21.60;91.70;;;;;;4861886;29;20389;-85
2021/07/06 06:20:42;;;;;;;0.85;0.60;;;21.70;91.80;;;;;;4861547;29;20057;-86
2021/07/06 06:23:08;;;;;;;1.40;0.60;;;21.70;91.50;;;;;;4874358;29;20052;-85
2021/07/06 06:25:34;;;;;;;1.13;0.65;;;21.80;91.20;;;;;;4859124;29;20045;-85
2021/07/06 06:27:59;;;;;;;2.88;0.85;;;21.90;91.10;;;;;;4857425;29;20055;-86
2021/07/06 06:30:25;;;;;;;0.85;0.70;;;22.00;91.00;;;;;;4850881;29;20042;-85
2021/07/06 06:32:54;;;;;;;0.50;0.50;;;22.20;91.00;;;;;;4851655;29;20550;-85
2021/07/06 06:35:20;;;;;;;1.30;0.68;;;22.30;90.20;;;;;;4854104;29;20626;-85
2021/07/06 06:37:45;;;;;;;5.03;0.73;;;22.40;90.40;;;;;;4859346;29;20129;-84
2021/07/06 06:40:11;;;;;;;1.35;0.52;;;22.50;90.00;;;;;;4858478;29;20048;-84
2021/07/06 06:42:38;;;;;;;1.92;0.70;;;22.60;89.80;;;;;;4856035;29;20413;-84
2021/07/06 06:45:05;;;;;;;1.50;0.52;;;22.70;90.10;;;;;;4846180;29;20462;-84
2021/07/06 06:47:30;;;;;;;4.47;0.80;;;22.80;88.60;;;;;;4858802;29;20413;-84
2021/07/06 06:49:56;;;;;;;2.78;1.40;;;22.90;89.20;;;;;;4876264;29;20046;-84
2021/07/06 06:52:22;;;;;;;1.20;0.73;;;23.00;89.40;;;;;;4860338;29;20414;-85
2021/07/06 06:54:47;;;;;;;1.55;0.70;;;23.10;88.60;;;;;;4860092;29;20076;-85
2021/07/06 06:57:13;;;;;;;0.82;0.50;;;23.30;88.50;;;;;;4860978;29;20164;-86
2021/07/06 06:59:39;;;;;;;2.90;0.73;;;23.40;88.10;;;;;;4855975;29;20165;-84
2021/07/06 07:02:17;;;;;;;0.70;0.52;;;23.50;87.10;;;;;;4857123;29;20048;-85
2021/07/06 07:04:44;;;;;;;0.77;0.60;;;23.60;88.20;;;;;;4841576;29;20076;-85
2021/07/06 07:07:10;;;;;;;3.50;1.20;;;23.80;87.60;;;;;;4851038;29;20045;-85
2021/07/06 07:09:36;;;;;;;2.33;0.90;;;24.00;86.60;;;;;;4873855;29;20041;-84
2021/07/06 07:12:01;;;;;;;2.55;0.77;;;24.10;85.30;;;;;;4849658;29;20114;-84
2021/07/06 07:14:27;;;;;;;0.93;0.60;;;24.20;86.00;;;;;;4850963;29;20522;-84
2021/07/06 07:16:52;;;;;;;0.95;0.50;;;24.30;87.30;;;;;;4842135;29;20314;-85
2021/07/06 07:19:18;;;;;;;1.00;0.70;;;24.30;84.90;;;;;;4854203;29;20037;-85
2021/07/06 07:21:43;;;;;;;1.15;0.60;;;24.50;85.10;;;;;;4841099;29;20315;-85
2021/07/06 07:24:09;;;;;;;1.38;0.43;;;24.60;84.40;;;;;;4858215;29;20037;-85
2021/07/06 07:26:35;;;;;;;3.25;0.60;;;24.70;83.50;;;;;;4859567;29;20045;-84
2021/07/06 07:29:02;;;;;;;1.67;0.60;;;24.80;84.80;;;;;;4875126;29;20081;-87
2021/07/06 07:31:28;;;;;;;3.75;0.50;;;24.90;84.30;;;;;;4859821;29;20110;-90
2021/07/06 07:33:53;;;;;;;1.70;0.70;;;25.00;82.10;;;;;;4861391;29;20140;-90
2021/07/06 07:36:19;;;;;;;1.55;0.68;;;25.10;83.90;;;;;;4860129;29;20049;-88
2021/07/06 07:38:44;;;;;;;0.80;0.60;;;25.20;82.10;;;;;;4859672;29;20060;-87
2021/07/06 07:41:09;;;;;;;1.70;0.68;;;25.30;82.70;;;;;;4861163;29;20436;-87
2021/07/06 07:43:35;;;;;;;3.90;0.75;;;25.40;82.00;;;;;;4861192;29;20053;-88
2021/07/06 07:46:00;;;;;;;7.15;0.88;;;25.50;81.60;;;;;;4860420;29;20182;-89
2021/07/06 07:48:26;;;;;;;3.28;0.93;;;25.60;81.80;;;;;;4858136;29;20041;-84
2021/07/06 07:50:51;;;;;;;3.63;0.70;;;25.70;79.90;;;;;;4874738;29;20073;-84
2021/07/06 07:53:17;;;;;;;0.70;0.50;;;25.80;80.50;;;;;;4874352;29;20045;-84
2021/07/06 07:55:42;;;;;;;1.20;0.60;;;25.90;79.50;;;;;;4859593;29;20166;-84
2021/07/06 07:58:08;;;;;;;1.17;0.50;;;26.10;78.70;;;;;;4874534;29;20045;-84
2021/07/06 08:00:33;;;;;;;1.25;0.40;;;26.20;77.80;;;;;;4876102;29;20198;-85
2021/07/06 08:02:59;;;;;;;2.20;0.50;;;26.30;77.30;;;;;;4874726;29;20057;-84
2021/07/06 08:05:25;;;;;;;1.80;0.50;;;26.30;76.90;;;;;;4871066;29;20323;-85
2021/07/06 08:07:51;;;;;;;2.95;0.50;;;26.40;78.60;;;;;;4842573;29;20046;-85
2021/07/06 08:10:17;;;;;;;1.58;0.70;;;26.50;77.90;;;;;;4866450;29;20053;-84
2021/07/06 08:12:42;;;;;;;2.88;1.00;;;26.60;76.30;;;;;;4859250;29;20052;-85
2021/07/06 08:15:08;;;;;;;1.65;0.40;;;26.70;77.30;;;;;;4860066;29;20045;-84
2021/07/06 08:17:34;;;;;;;7.72;0.75;;;26.80;77.10;;;;;;4863696;29;20045;-84
2021/07/06 08:19:59;;;;;;;4.30;0.68;;;26.90;75.70;;;;;;4863510;29;20045;-84
2021/07/06 08:22:26;;;;;;;1.38;0.45;;;26.90;75.30;;;;;;4852515;29;20050;-85
2021/07/06 08:24:52;;;;;;;2.60;0.40;;;27.10;75.20;;;;;;4852908;29;20045;-83
2021/07/06 08:27:18;;;;;;;0.68;0.50;;;27.10;74.90;;;;;;4877167;29;20049;-84
2021/07/06 08:29:43;;;;;;;0.85;0.55;;;27.20;76.90;;;;;;4857504;29;20414;-84
2021/07/06 08:32:09;;;;;;;1.88;0.50;;;27.20;77.40;;;;;;4844159;29;20145;-83
2021/07/06 08:34:34;;;;;;;1.58;0.73;;;27.30;75.90;;;;;;4855986;29;20046;-86
2021/07/06 08:37:00;;;;;;;1.63;0.60;;;27.40;75.00;;;;;;4863563;29;20121;-86
2021/07/06 08:39:26;;;;;;;1.67;0.65;;;27.50;73.50;;;;;;4864650;29;20368;-84
2021/07/06 08:41:52;;;;;;;2.25;0.77;;;27.60;75.00;;;;;;4862085;29;20041;-84
2021/07/06 08:44:20;;;;;;;0.93;0.47;;;27.70;75.40;;;;;;4848664;29;20510;-84
2021/07/06 08:46:48;;;;;;;2.45;0.50;;;27.80;73.50;;;;;;4867059;29;20077;-85
2021/07/06 08:49:15;;;;;;;2.08;0.60;;;27.90;74.00;;;;;;4878441;29;20117;-84
2021/07/06 08:51:42;;;;;;;2.78;0.50;;;28.00;73.60;;;;;;4861746;29;20398;-84
2021/07/06 08:54:08;;;;;;;3.70;0.50;;;28.20;76.40;;;;;;4858251;29;20048;-85
2021/07/06 08:56:33;;;;;;;0.80;0.32;;;28.30;71.60;;;;;;4858969;29;20038;-84
2021/07/06 08:58:59;;;;;;;0.70;0.38;;;28.30;73.70;;;;;;4869795;29;20041;-84
2021/07/06 09:01:28;;;;;;;2.40;0.63;;;28.40;74.70;;;;;;4876562;29;20077;-84
2021/07/06 09:03:59;;;;;;;1.95;0.50;;;28.50;74.70;;;;;;4876995;29;20038;-84
2021/07/06 09:06:26;;;;;;;2.65;0.30;;;28.60;72.60;;;;;;4877732;29;20042;-84
2021/07/06 09:09:15;;;;;;;2.38;0.55;;;28.60;73.20;;;;;;4861863;29;20041;-83
2021/07/06 09:11:47;;;;;;;1.48;0.60;;;28.70;71.60;;;;;;4852527;29;20053;-84
2021/07/06 09:14:14;;;;;;;1.25;0.50;;;28.80;73.30;;;;;;4877421;29;20056;-83
2021/07/06 09:16:40;;;;;;;2.92;0.40;;;28.90;70.80;;;;;;4871234;29;20137;-84
2021/07/06 09:19:17;;;;;;;3.38;0.40;;;29.10;69.60;;;;;;4858967;29;20042;-84
2021/07/06 09:21:43;;;;;;;2.13;0.63;;;29.20;73.90;;;;;;4872940;29;20033;-85
2021/07/06 09:24:24;;;;;;;1.10;0.50;;;29.30;71.00;;;;;;4862683;29;20410;-87
2021/07/06 09:26:50;;;;;;;3.42;0.50;;;29.50;72.00;;;;;;4861486;29;20057;-86
2021/07/06 09:29:16;;;;;;;5.10;0.43;;;29.60;72.60;;;;;;4863059;29;20046;-87
2021/07/06 09:31:42;;;;;;;5.88;0.45;;;29.60;66.80;;;;;;4863003;29;20045;-88
2021/07/06 09:34:13;;;;;;;4.13;0.50;;;29.60;64.80;;;;;;4862677;29;20062;-87
2021/07/06 09:36:47;;;;;;;2.10;0.40;;;29.70;65.80;;;;;;4862679;29;20045;-90
2021/07/06 09:39:26;;;;;;;1.77;0.50;;;29.80;66.00;;;;;;4861722;29;20065;-89
2021/07/06 09:42:03;;;;;;;1.55;0.30;;;29.90;63.60;;;;;;4861064;29;20086;-83
2021/07/06 09:44:33;;;;;;;1.10;0.60;;;30.00;65.20;;;;;;4850319;29;20141;-84
2021/07/06 09:47:06;;;;;;;0.35;0.30;;;30.00;65.60;;;;;;4843872;29;20145;-83
2021/07/06 09:49:43;;;;;;;0.70;0.50;;;30.10;62.90;;;;;;4860729;29;20041;-83
2021/07/06 09:52:14;;;;;;;1.77;0.50;;;30.10;62.50;;;;;;4877030;29;20049;-89
2021/07/06 09:54:44;;;;;;;3.75;0.40;;;30.20;63.30;;;;;;4853886;29;20034;-90
2021/07/06 09:57:25;;;;;;;1.83;0.40;;;30.30;62.50;;;;;;4851675;29;20046;-89
2021/07/06 09:59:55;;;;;;;5.63;0.57;;;30.40;62.30;;;;;;4857469;29;20484;-83
2021/07/06 10:02:22;;;;;;;0.77;0.35;;;30.40;62.90;;;;;;4856272;29;20053;-83
2021/07/06 10:04:53;;;;;;;0.40;0.40;;;30.50;62.20;;;;;;4854691;29;20072;-83
2021/07/06 10:07:23;;;;;;;1.55;0.50;;;30.70;62.90;;;;;;4868115;29;20049;-83
2021/07/06 10:09:49;;;;;;;0.57;0.40;;;30.70;59.00;;;;;;4869138;29;20042;-83
2021/07/06 10:12:19;;;;;;;2.40;0.50;;;30.70;63.70;;;;;;4843405;29;20037;-83
2021/07/06 10:14:46;;;;;;;0.82;0.30;;;30.80;61.80;;;;;;4864952;29;20041;-83
2021/07/06 10:17:12;;;;;;;3.30;0.40;;;30.80;67.30;;;;;;4861582;29;20449;-83
2021/07/06 10:19:45;;;;;;;1.27;0.40;;;30.90;60.60;;;;;;4857630;29;20045;-83
2021/07/06 10:22:12;;;;;;;0.52;0.40;;;31.00;62.60;;;;;;4868011;29;20568;-83
2021/07/06 10:24:50;;;;;;;1.40;0.55;;;31.00;59.10;;;;;;4864704;29;20328;-91
2021/07/06 10:27:25;;;;;;;0.52;0.30;;;31.10;62.80;;;;;;4866462;29;20049;-91
2021/07/06 10:30:17;;;;;;;7.50;0.50;;;31.20;62.70;;;;;;4860666;29;20156;-87
2021/07/06 10:32:49;;;;;;;0.75;0.50;;;31.30;59.90;;;;;;4856793;29;20061;-93
2021/07/06 10:35:37;;;;;;;1.35;0.70;;;31.30;59.60;;;;;;4854490;29;20038;-95
2021/07/06 10:38:27;;;;;;;8.32;0.57;;;31.30;63.10;;;;;;4853061;29;20065;-85
2021/07/06 10:41:05;;;;;;;0.60;0.30;;;31.40;65.70;;;;;;4854532;29;20049;-83
2021/07/06 10:43:42;;;;;;;0.82;0.32;;;31.40;60.60;;;;;;4850703;29;20610;-84
2021/07/06 10:46:16;;;;;;;3.38;0.50;;;31.60;64.20;;;;;;4852710;29;20086;-84
2021/07/06 10:49:02;;;;;;;6.28;1.13;;;31.70;60.20;;;;;;4849916;29;20037;-84
2021/07/06 10:51:34;;;;;;;3.17;0.45;;;31.80;60.30;;;;;;4861764;29;20122;-84
2021/07/06 10:54:07;;;;;;;0.70;0.35;;;31.90;63.40;;;;;;4846046;29;20104;-84
2021/07/06 10:56:35;;;;;;;0.43;0.32;;;31.90;59.40;;;;;;4859037;29;20041;-83
2021/07/06 10:59:02;;;;;;;0.70;0.43;;;31.90;59.40;;;;;;4855968;29;20498;-83
2021/07/06 11:01:37;;;;;;;0.55;0.38;;;31.90;59.20;;;;;;4865756;29;20128;-83
2021/07/06 11:04:03;;;;;;;1.15;0.50;;;32.00;58.30;;;;;;4857462;29;20045;-84
2021/07/06 11:06:44;;;;;;;4.70;0.40;;;31.90;59.00;;;;;;4848337;29;20046;-83
2021/07/06 11:09:10;;;;;;;0.90;0.30;;;32.00;58.50;;;;;;4854768;29;20041;-84
2021/07/06 11:11:36;;;;;;;0.88;0.43;;;32.10;59.50;;;;;;4858532;29;20050;-84
2021/07/06 11:14:21;;;;;;;3.22;0.40;;;32.30;60.30;;;;;;4872438;29;20042;-84
2021/07/06 11:17:03;;;;;;;0.82;0.40;;;32.30;57.00;;;;;;4858294;29;20584;-83
2021/07/06 11:19:35;;;;;;;0.68;0.30;;;32.30;59.00;;;;;;4858754;29;20076;-83
2021/07/06 11:22:08;;;;;;;2.58;0.38;;;32.30;56.90;;;;;;4858933;29;20049;-83
2021/07/06 11:24:45;;;;;;;0.90;0.43;;;32.30;60.80;;;;;;4856930;29;20052;-83
2021/07/06 11:27:49;;;;;;;0.75;0.38;;;32.50;59.60;;;;;;4859952;29;20084;-83
2021/07/06 11:30:31;;;;;;;1.50;0.40;;;32.60;59.30;;;;;;4864279;29;20068;-82
2021/07/06 11:33:10;;;;;;;2.55;0.40;;;32.70;57.70;;;;;;4860850;29;20485;-82
2021/07/06 11:35:48;;;;;;;3.90;0.50;;;32.90;59.00;;;;;;4860348;29;20072;-83
2021/07/06 11:38:16;;;;;;;1.30;0.30;;;33.00;57.80;;;;;;4860521;29;20057;-82
2021/07/06 11:40:44;;;;;;;5.90;0.38;;;33.10;54.90;;;;;;4857598;29;20041;-84
2021/07/06 11:43:12;;;;;;;0.95;0.40;;;33.10;56.10;;;;;;4860617;29;20037;-82
2021/07/06 11:45:38;;;;;;;0.63;0.30;;;33.20;59.40;;;;;;4858674;29;20337;-83
2021/07/06 11:48:12;;;;;;;3.38;0.60;;;33.30;56.10;;;;;;4859309;29;20053;-82
2021/07/06 11:50:40;;;;;;;0.90;0.40;;;33.30;55.80;;;;;;4859382;29;20030;-82
2021/07/06 11:53:05;;;;;;;1.40;0.40;;;33.30;56.30;;;;;;4878706;29;20072;-83
2021/07/06 11:55:33;;;;;;;2.63;0.45;;;33.30;57.90;;;;;;4849469;29;20726;-83
2021/07/06 11:58:00;;;;;;;1.52;0.50;;;33.40;54.80;;;;;;4846563;29;20041;-82
2021/07/06 12:00:28;;;;;;;1.42;0.30;;;33.30;58.60;;;;;;4862561;29;20092;-83
2021/07/06 12:03:20;;;;;;;0.82;0.40;;;33.40;55.50;;;;;;4846525;29;20050;-83
2021/07/06 12:05:49;;;;;;;0.98;0.40;;;33.40;56.50;;;;;;4845701;29;20430;-83
2021/07/06 12:08:18;;;;;;;0.85;0.60;;;33.30;54.80;;;;;;4856086;29;20037;-83
2021/07/06 12:10:55;;;;;;;1.30;0.30;;;33.30;55.30;;;;;;4861740;29;20045;-83
2021/07/06 12:13:21;;;;;;;0.50;0.30;;;33.20;56.40;;;;;;4871894;29;20053;-83
2021/07/06 12:15:47;;;;;;;2.05;0.40;;;33.30;57.80;;;;;;4863867;29;20049;-83
2021/07/06 12:18:14;;;;;;;1.85;0.50;;;33.30;55.10;;;;;;4877783;29;20053;-83
2021/07/06 12:20:40;;;;;;;0.52;0.32;;;33.40;57.80;;;;;;4861583;29;20046;-83
2021/07/06 12:23:05;;;;;;;0.50;0.40;;;33.40;55.20;;;;;;4844824;29;20106;-83
2021/07/06 12:25:31;;;;;;;0.40;0.38;;;33.50;54.50;;;;;;4845725;29;20131;-83
2021/07/06 12:27:57;;;;;;;0.93;0.30;;;33.60;53.30;;;;;;4859807;29;20137;-83
2021/07/06 12:30:23;;;;;;;2.30;0.30;;;33.60;54.70;;;;;;4846031;29;20467;-83
2021/07/06 12:33:08;;;;;;;0.45;0.22;;;33.80;53.40;;;;;;4846325;29;20045;-83
2021/07/06 12:35:34;;;;;;;1.05;0.35;;;33.90;53.10;;;;;;4863834;29;20282;-82
2021/07/06 12:38:04;;;;;;;5.45;0.75;;;33.80;53.80;;;;;;4878707;29;20322;-83
2021/07/06 12:40:31;;;;;;;0.60;0.50;;;33.60;54.20;;;;;;4863863;29;20053;-83
2021/07/06 12:42:58;;;;;;;0.80;0.40;;;33.50;55.40;;;;;;4858185;29;20037;-82
2021/07/06 12:45:32;;;;;;;2.47;0.80;;;33.30;55.40;;;;;;4854193;29;20599;-83
2021/07/06 12:47:58;;;;;;;0.70;0.38;;;33.10;54.30;;;;;;4856327;29;20037;-83
2021/07/06 12:50:26;;;;;;;1.08;0.40;;;32.80;55.70;;;;;;4863874;29;20053;-83